Time;durP1;ratioP1;P1;durP2;ratioP2;P2;SDS_P1;SDS_P2;PMS_P1;PMS_P2;Temp;Humidity;BMP_temperature;BMP_pressure;BME280_temperature;BME280_humidity;BME280_pressure;Samples;Min_cycle;Max_cycle;Signal;HPM_P1;HPM_P2
2021/01/14 00:00:14;;;;;;;4.15;0.60;;;4.80;99.90;;;;;;5048616;28;20029;-65
2021/01/14 00:02:40;;;;;;;7.13;0.70;;;4.70;99.90;;;;;;5045814;28;21649;-64
2021/01/14 00:05:08;;;;;;;7.68;1.25;;;4.70;99.90;;;;;;5047555;28;20029;-65
2021/01/14 00:07:33;;;;;;;9.68;0.90;;;4.70;99.90;;;;;;5044152;28;20132;-65
2021/01/14 00:09:59;;;;;;;11.07;1.40;;;4.70;99.90;;;;;;5050136;28;20137;-66
2021/01/14 00:12:24;;;;;;;2.85;0.70;;;4.70;99.90;;;;;;5050064;28;20037;-65
2021/01/14 00:14:50;;;;;;;8.68;0.68;;;4.70;99.90;;;;;;5047468;28;20047;-66
2021/01/14 00:17:15;;;;;;;12.48;1.17;;;4.70;99.90;;;;;;5049971;28;20033;-64
2021/01/14 00:19:41;;;;;;;10.43;0.93;;;4.60;99.90;;;;;;5044119;28;20051;-65
2021/01/14 00:22:06;;;;;;;4.25;0.40;;;4.60;99.90;;;;;;5052651;28;20119;-66
2021/01/14 00:24:32;;;;;;;5.05;0.32;;;4.60;99.90;;;;;;5045879;28;20037;-65
2021/01/14 00:26:57;;;;;;;3.80;0.47;;;4.60;99.90;;;;;;5049272;28;20033;-65
2021/01/14 00:29:23;;;;;;;5.88;0.73;;;4.50;99.90;;;;;;5046309;28;20029;-66
2021/01/14 00:31:49;;;;;;;4.57;0.35;;;4.50;99.90;;;;;;5047381;28;20037;-65
2021/01/14 00:34:15;;;;;;;7.50;0.43;;;4.60;99.90;;;;;;5049971;28;20029;-65
2021/01/14 00:39:27;;;;;;;4.65;0.88;;;4.60;99.90;;;;;;5050452;28;20493;-65
2021/01/14 00:41:53;;;;;;;3.33;0.32;;;4.60;99.90;;;;;;5050186;28;20505;-65
2021/01/14 00:44:19;;;;;;;9.85;0.90;;;4.60;99.90;;;;;;5051459;28;20051;-67
2021/01/14 00:46:45;;;;;;;6.28;1.40;;;4.50;99.90;;;;;;5048104;28;20044;-66
2021/01/14 00:49:11;;;;;;;5.32;0.80;;;4.50;99.90;;;;;;5046010;28;20436;-66
2021/01/14 00:51:37;;;;;;;5.07;0.43;;;4.50;99.90;;;;;;5047983;28;20025;-66
2021/01/14 00:54:05;;;;;;;4.93;1.70;;;4.40;99.90;;;;;;5044166;28;20485;-66
2021/01/14 00:56:33;;;;;;;7.07;0.98;;;4.50;99.90;;;;;;5046027;28;20113;-66
2021/01/14 00:58:58;;;;;;;2.38;0.35;;;4.50;99.90;;;;;;5048372;28;20103;-64
2021/01/14 01:01:24;;;;;;;6.45;0.63;;;4.50;99.90;;;;;;5045981;28;20456;-65
2021/01/14 01:03:51;;;;;;;4.40;0.40;;;4.50;99.90;;;;;;5041314;28;20061;-65
2021/01/14 01:06:17;;;;;;;9.40;0.57;;;4.50;99.90;;;;;;5042600;28;20449;-65
2021/01/14 01:08:42;;;;;;;1.45;0.32;;;4.50;99.90;;;;;;5039838;28;20056;-65
2021/01/14 01:11:08;;;;;;;6.90;1.25;;;4.40;99.90;;;;;;5042360;28;20472;-66
2021/01/14 01:13:33;;;;;;;9.30;0.88;;;4.50;99.90;;;;;;5039626;28;20034;-65
2021/01/14 01:15:59;;;;;;;3.75;0.55;;;4.40;99.90;;;;;;5042711;28;20040;-65
2021/01/14 01:18:24;;;;;;;1.73;0.60;;;4.40;99.90;;;;;;5041291;28;20033;-64
2021/01/14 01:20:50;;;;;;;5.57;0.93;;;4.30;99.90;;;;;;5040904;28;20497;-65
2021/01/14 01:23:15;;;;;;;3.05;0.60;;;4.30;99.90;;;;;;5042345;28;20517;-65
2021/01/14 01:25:41;;;;;;;5.15;0.77;;;4.30;99.90;;;;;;5039511;28;20120;-65
2021/01/14 01:28:06;;;;;;;2.50;0.52;;;4.30;99.90;;;;;;5042256;28;20036;-66
2021/01/14 01:30:32;;;;;;;7.40;0.65;;;4.30;99.90;;;;;;5039796;28;20153;-66
2021/01/14 01:32:57;;;;;;;5.82;1.08;;;4.30;99.90;;;;;;5042594;28;20102;-65
2021/01/14 01:35:23;;;;;;;6.07;0.52;;;4.20;99.90;;;;;;5040982;28;20512;-66
2021/01/14 01:37:48;;;;;;;3.10;0.43;;;4.30;99.90;;;;;;5041034;28;20048;-65
2021/01/14 01:40:14;;;;;;;10.85;0.88;;;4.30;99.90;;;;;;5042039;28;20041;-65
2021/01/14 01:42:40;;;;;;;6.43;1.05;;;4.30;99.90;;;;;;5039734;28;20057;-64
2021/01/14 01:45:06;;;;;;;3.08;0.60;;;4.20;99.90;;;;;;5041763;28;20052;-65
2021/01/14 01:47:33;;;;;;;7.82;0.63;;;4.20;99.90;;;;;;5039348;28;20500;-65
2021/01/14 01:50:02;;;;;;;3.28;0.50;;;4.20;99.90;;;;;;5041894;28;20048;-65
2021/01/14 01:52:31;;;;;;;7.70;1.80;;;4.10;99.90;;;;;;5039823;28;20029;-66
2021/01/14 01:54:56;;;;;;;3.45;0.47;;;4.10;99.90;;;;;;5041596;28;20030;-65
2021/01/14 01:57:22;;;;;;;2.95;0.73;;;4.20;99.90;;;;;;5039842;28;20036;-66
2021/01/14 01:59:48;;;;;;;1.65;0.20;;;4.10;99.90;;;;;;5040107;28;20036;-66
2021/01/14 02:02:20;;;;;;;5.47;0.73;;;4.10;99.90;;;;;;5041523;28;20056;-65
2021/01/14 02:04:45;;;;;;;5.25;0.30;;;4.10;99.90;;;;;;5040334;28;20033;-66
2021/01/14 02:07:18;;;;;;;3.53;0.60;;;4.10;99.90;;;;;;5040262;28;20029;-65
2021/01/14 02:09:49;;;;;;;7.75;0.95;;;4.10;99.90;;;;;;5038715;28;20034;-65
2021/01/14 02:12:15;;;;;;;4.32;0.32;;;4.10;99.90;;;;;;5041028;28;20095;-64
2021/01/14 02:14:42;;;;;;;7.82;1.35;;;4.10;99.90;;;;;;5038289;28;20033;-66
2021/01/14 02:17:08;;;;;;;3.83;0.45;;;4.10;99.90;;;;;;5042324;28;20025;-63
2021/01/14 02:19:40;;;;;;;2.50;0.50;;;4.10;99.90;;;;;;5043000;28;20029;-63
2021/01/14 02:22:16;;;;;;;5.68;1.00;;;4.10;99.90;;;;;;5045966;28;20398;-64
2021/01/14 02:24:50;;;;;;;4.90;1.17;;;4.10;99.90;;;;;;5039545;28;20124;-64
2021/01/14 02:27:16;;;;;;;7.40;0.60;;;4.00;99.90;;;;;;5040488;28;20092;-66
2021/01/14 02:29:42;;;;;;;2.85;0.50;;;4.10;99.90;;;;;;5039584;28;20026;-64
2021/01/14 02:32:16;;;;;;;3.47;0.47;;;4.00;99.90;;;;;;5041091;28;20152;-66
2021/01/14 02:34:41;;;;;;;4.15;0.40;;;4.00;99.90;;;;;;5039808;28;20029;-66
2021/01/14 02:37:07;;;;;;;4.55;0.93;;;4.00;99.90;;;;;;5040999;28;20106;-66
2021/01/14 02:39:34;;;;;;;5.88;0.57;;;4.00;99.90;;;;;;5037435;28;20029;-64
2021/01/14 02:42:00;;;;;;;9.07;1.60;;;4.00;99.90;;;;;;5040733;28;20120;-65
2021/01/14 02:44:25;;;;;;;4.13;0.40;;;3.90;99.90;;;;;;5038920;28;20124;-65
2021/01/14 02:46:51;;;;;;;3.58;0.38;;;3.90;99.90;;;;;;5039042;28;20107;-65
2021/01/14 02:49:18;;;;;;;6.05;1.58;;;3.90;99.90;;;;;;5039943;28;20033;-65
2021/01/14 02:51:49;;;;;;;3.65;0.40;;;3.90;99.90;;;;;;5041403;28;20025;-66
2021/01/14 02:54:17;;;;;;;8.48;0.50;;;3.90;99.90;;;;;;5045997;28;20036;-64
2021/01/14 02:56:47;;;;;;;7.95;1.85;;;3.80;99.90;;;;;;5040959;28;20048;-65
2021/01/14 02:59:12;;;;;;;2.88;0.35;;;3.80;99.90;;;;;;5037762;28;20033;-66
2021/01/14 03:01:38;;;;;;;6.80;0.40;;;3.80;99.90;;;;;;5041345;28;20417;-64
2021/01/14 03:04:03;;;;;;;5.00;0.47;;;3.70;99.90;;;;;;5037746;28;20033;-66
2021/01/14 03:06:29;;;;;;;1.17;0.13;;;3.70;99.90;;;;;;5041822;28;20033;-66
2021/01/14 03:08:55;;;;;;;9.30;0.85;;;3.60;99.90;;;;;;5038456;28;20112;-66
2021/01/14 03:11:27;;;;;;;1.70;0.40;;;3.60;99.90;;;;;;5039856;28;20552;-65
2021/01/14 03:13:54;;;;;;;6.60;1.05;;;3.50;99.90;;;;;;5038666;28;20047;-65
2021/01/14 03:16:19;;;;;;;4.25;0.55;;;3.40;99.90;;;;;;5039880;28;20057;-66
2021/01/14 03:18:47;;;;;;;5.75;0.35;;;3.40;99.90;;;;;;5039997;28;20041;-65
2021/01/14 03:21:23;;;;;;;3.28;0.40;;;3.40;99.90;;;;;;5038914;28;20414;-64
2021/01/14 03:23:50;;;;;;;4.55;0.60;;;3.30;99.90;;;;;;5039267;28;20025;-65
2021/01/14 03:26:16;;;;;;;6.25;0.32;;;3.20;99.90;;;;;;5039024;28;20113;-66
2021/01/14 03:28:41;;;;;;;5.68;1.90;;;3.20;99.90;;;;;;5040124;28;20123;-66
2021/01/14 03:31:09;;;;;;;2.15;0.20;;;3.20;99.90;;;;;;5037882;28;20034;-65
2021/01/14 03:33:35;;;;;;;1.90;0.50;;;3.20;99.90;;;;;;5041112;28;20033;-66
2021/01/14 03:36:00;;;;;;;1.58;0.30;;;3.10;99.90;;;;;;5036912;28;20100;-65
2021/01/14 03:38:26;;;;;;;5.03;0.55;;;3.10;99.90;;;;;;5040862;28;20029;-66
2021/01/14 03:40:51;;;;;;;6.40;0.20;;;3.10;99.90;;;;;;5038469;28;20567;-64
2021/01/14 03:43:17;;;;;;;2.75;0.35;;;3.10;99.90;;;;;;5039362;28;20087;-65
2021/01/14 03:45:42;;;;;;;3.83;0.13;;;3.10;99.90;;;;;;5039551;28;20047;-66
2021/01/14 03:48:08;;;;;;;9.73;0.98;;;3.10;99.90;;;;;;5038590;28;20140;-64
2021/01/14 03:50:33;;;;;;;3.20;0.30;;;3.10;99.90;;;;;;5039267;28;20064;-66
2021/01/14 03:52:59;;;;;;;4.18;0.75;;;3.10;99.90;;;;;;5036462;28;20049;-66
2021/01/14 03:55:28;;;;;;;5.32;0.50;;;3.00;99.90;;;;;;5039566;28;20041;-65
2021/01/14 03:57:53;;;;;;;5.70;0.40;;;3.00;99.90;;;;;;5037998;28;20596;-66
2021/01/14 04:00:19;;;;;;;6.03;0.28;;;3.00;99.90;;;;;;5040047;28;20057;-65
2021/01/14 04:02:44;;;;;;;9.35;1.00;;;3.00;99.90;;;;;;5039396;28;20028;-65
2021/01/14 04:05:12;;;;;;;5.68;1.40;;;3.00;99.90;;;;;;5039156;28;20033;-66
2021/01/14 04:07:37;;;;;;;2.42;0.30;;;3.00;99.90;;;;;;5039831;28;20070;-65
2021/01/14 04:10:04;;;;;;;5.53;1.00;;;3.10;99.90;;;;;;5037858;28;20493;-65
2021/01/14 04:12:30;;;;;;;4.97;0.52;;;3.10;99.90;;;;;;5040258;28;20090;-66
2021/01/14 04:14:58;;;;;;;4.28;0.20;;;3.10;99.90;;;;;;5037497;28;20033;-65
2021/01/14 04:17:27;;;;;;;6.60;1.58;;;3.10;99.90;;;;;;5039116;28;20029;-65
2021/01/14 04:19:53;;;;;;;5.70;1.05;;;3.20;99.90;;;;;;5039089;28;20025;-65
2021/01/14 04:22:19;;;;;;;4.82;0.65;;;3.10;99.90;;;;;;5042114;28;20128;-66
2021/01/14 04:24:45;;;;;;;4.53;0.93;;;3.10;99.90;;;;;;5042411;28;20052;-64
2021/01/14 04:27:10;;;;;;;2.50;0.50;;;3.10;99.90;;;;;;5042347;28;20025;-66
2021/01/14 04:29:36;;;;;;;3.55;0.30;;;3.10;99.90;;;;;;5041710;28;20029;-65
2021/01/14 04:32:02;;;;;;;6.95;0.60;;;3.10;99.90;;;;;;5039855;28;20490;-64
2021/01/14 04:34:27;;;;;;;6.22;0.57;;;3.10;99.90;;;;;;5044314;28;20037;-65
2021/01/14 04:37:00;;;;;;;1.70;0.20;;;3.10;99.90;;;;;;5049705;28;20124;-65
2021/01/14 04:39:25;;;;;;;3.35;0.45;;;3.00;99.90;;;;;;5043069;28;20044;-65
2021/01/14 04:41:56;;;;;;;3.55;0.40;;;3.00;99.90;;;;;;5040747;28;20029;-65
2021/01/14 04:44:23;;;;;;;3.17;0.47;;;3.00;99.90;;;;;;5043771;28;20029;-65
2021/01/14 04:46:50;;;;;;;1.80;0.30;;;3.00;99.90;;;;;;5040981;28;20033;-64
2021/01/14 04:49:18;;;;;;;10.75;0.43;;;3.00;99.90;;;;;;5042960;28;20514;-65
2021/01/14 04:51:47;;;;;;;2.83;0.82;;;3.00;99.90;;;;;;5041693;28;20082;-65
2021/01/14 04:54:14;;;;;;;4.65;0.43;;;3.00;99.90;;;;;;5042478;28;20087;-65
2021/01/14 04:56:40;;;;;;;4.68;0.65;;;3.00;99.90;;;;;;5043217;28;20037;-65
2021/01/14 04:59:06;;;;;;;3.10;0.73;;;3.00;99.90;;;;;;5041805;28;20478;-64
2021/01/14 05:01:41;;;;;;;3.92;0.80;;;3.00;99.90;;;;;;5042722;28;20033;-65
2021/01/14 05:04:09;;;;;;;2.75;0.90;;;3.10;99.90;;;;;;5041239;28;20532;-65
2021/01/14 05:06:38;;;;;;;7.32;0.25;;;3.10;99.90;;;;;;5042125;28;20094;-64
2021/01/14 05:09:05;;;;;;;7.72;1.02;;;3.10;99.90;;;;;;5041039;28;20033;-65
2021/01/14 05:11:42;;;;;;;12.35;1.02;;;3.10;99.90;;;;;;5042275;28;20031;-65
2021/01/14 05:14:07;;;;;;;8.00;0.60;;;3.20;99.90;;;;;;5040252;28;20029;-65
2021/01/14 05:16:33;;;;;;;7.38;1.65;;;3.30;99.90;;;;;;5041916;28;20124;-65
2021/01/14 05:18:58;;;;;;;3.13;0.47;;;3.30;99.90;;;;;;5040504;28;20033;-65
2021/01/14 05:21:30;;;;;;;3.17;0.40;;;3.30;99.90;;;;;;5042059;28;20094;-65
2021/01/14 05:24:15;;;;;;;3.08;0.32;;;3.30;99.90;;;;;;5059658;28;20025;-64
2021/01/14 05:26:42;;;;;;;1.08;0.40;;;3.30;99.90;;;;;;5040313;28;20036;-65
2021/01/14 05:29:18;;;;;;;4.20;0.35;;;3.40;99.90;;;;;;5041629;28;20024;-65
2021/01/14 05:31:45;;;;;;;1.23;0.43;;;3.40;99.90;;;;;;5046887;28;20170;-65
2021/01/14 05:34:11;;;;;;;5.70;1.05;;;3.40;99.90;;;;;;5049902;28;20047;-66
2021/01/14 05:36:57;;;;;;;5.20;1.10;;;3.50;99.90;;;;;;5050575;28;20068;-64
2021/01/14 05:39:23;;;;;;;3.92;1.48;;;3.50;99.90;;;;;;5050798;28;20033;-65
2021/01/14 05:41:50;;;;;;;2.40;0.55;;;3.50;99.90;;;;;;5050180;28;20033;-65
2021/01/14 05:44:16;;;;;;;4.60;0.65;;;3.50;99.90;;;;;;5050858;28;20548;-65
2021/01/14 05:46:42;;;;;;;4.18;0.30;;;3.50;99.90;;;;;;5040155;28;20029;-65
2021/01/14 05:49:10;;;;;;;8.38;0.95;;;3.50;99.90;;;;;;5037933;28;20037;-65
2021/01/14 05:51:36;;;;;;;3.45;0.30;;;3.50;99.90;;;;;;5042557;28;20424;-65
2021/01/14 05:54:10;;;;;;;19.10;1.55;;;3.50;99.90;;;;;;5046448;28;20033;-66
2021/01/14 05:56:36;;;;;;;5.60;1.20;;;3.60;99.90;;;;;;5042930;28;20037;-65
2021/01/14 05:59:05;;;;;;;7.25;1.25;;;3.60;99.90;;;;;;5040394;28;20084;-65
2021/01/14 06:01:31;;;;;;;4.35;0.47;;;3.60;99.90;;;;;;5038702;28;20040;-65
2021/01/14 06:04:14;;;;;;;5.28;0.50;;;3.60;99.90;;;;;;5041420;28;20033;-64
2021/01/14 06:06:42;;;;;;;6.10;0.35;;;3.50;99.90;;;;;;5041950;28;20510;-64
2021/01/14 06:09:08;;;;;;;1.35;0.13;;;3.50;99.90;;;;;;5042239;28;20087;-66
2021/01/14 06:11:33;;;;;;;4.70;0.52;;;3.60;99.90;;;;;;5070897;22;20052;-60
2021/01/14 06:13:59;;;;;;;8.95;1.02;;;3.50;99.90;;;;;;5058874;28;21029;-60
2021/01/14 06:16:24;;;;;;;4.50;0.68;;;3.50;99.90;;;;;;5062153;28;20111;-60
2021/01/14 06:19:08;;;;;;;3.00;0.38;;;3.40;99.90;;;;;;5060603;28;20036;-59
2021/01/14 06:21:45;;;;;;;1.50;0.40;;;3.40;99.90;;;;;;5062817;28;20036;-64
2021/01/14 06:24:37;;;;;;;10.75;1.00;;;3.40;99.90;;;;;;5059912;28;20032;-61
2021/01/14 06:27:06;;;;;;;5.32;0.70;;;3.40;99.90;;;;;;5053546;28;20049;-60
2021/01/14 06:29:34;;;;;;;6.20;1.48;;;3.40;99.90;;;;;;5061523;28;20139;-62
2021/01/14 06:32:14;;;;;;;4.93;1.25;;;3.40;99.90;;;;;;5061933;28;20671;-60
2021/01/14 06:34:42;;;;;;;4.85;0.40;;;3.40;99.90;;;;;;5060931;28;20033;-61
2021/01/14 06:37:09;;;;;;;2.55;0.68;;;3.30;99.90;;;;;;5062369;28;20025;-60
2021/01/14 06:39:44;;;;;;;4.85;0.70;;;3.40;99.90;;;;;;5063367;28;20044;-60
2021/01/14 06:42:18;;;;;;;1.50;0.30;;;3.40;99.90;;;;;;5061812;28;20044;-60
2021/01/14 06:44:49;;;;;;;5.43;0.60;;;3.40;99.90;;;;;;5060398;28;20043;-60
2021/01/14 06:47:34;;;;;;;5.63;0.47;;;3.40;99.90;;;;;;5063348;28;20086;-61
2021/01/14 06:50:15;;;;;;;4.35;0.75;;;3.40;99.90;;;;;;5057899;28;20451;-61
2021/01/14 06:52:51;;;;;;;2.53;0.70;;;3.40;99.90;;;;;;5057131;28;20136;-62
2021/01/14 06:55:17;;;;;;;3.33;0.40;;;3.40;99.90;;;;;;5059094;28;20029;-62
2021/01/14 06:58:08;;;;;;;3.55;0.90;;;3.40;99.90;;;;;;5063309;28;20082;-60
2021/01/14 07:00:39;;;;;;;4.90;1.00;;;3.40;99.90;;;;;;5062628;28;20075;-60
2021/01/14 07:03:15;;;;;;;2.85;0.55;;;3.30;99.90;;;;;;5068451;28;20028;-60
2021/01/14 07:05:53;;;;;;;4.50;0.28;;;3.30;99.90;;;;;;5068346;28;20039;-61
2021/01/14 07:08:33;;;;;;;2.85;0.50;;;3.40;99.90;;;;;;5067501;28;20032;-61
2021/01/14 07:11:06;;;;;;;3.58;1.10;;;3.40;99.90;;;;;;5067118;28;20044;-61
2021/01/14 07:13:53;;;;;;;4.20;0.40;;;3.40;99.90;;;;;;5065604;28;20041;-61
2021/01/14 07:16:21;;;;;;;4.82;0.70;;;3.40;99.90;;;;;;5065875;28;20048;-60
2021/01/14 07:18:48;;;;;;;2.40;0.30;;;3.40;99.90;;;;;;5065142;28;20029;-60
2021/01/14 07:21:34;;;;;;;3.47;0.73;;;3.40;99.90;;;;;;5066932;28;20048;-61
2021/01/14 07:24:19;;;;;;;4.60;0.38;;;3.40;99.90;;;;;;5066627;28;20040;-60
2021/01/14 07:26:52;;;;;;;1.42;0.40;;;3.30;99.90;;;;;;5059042;28;20473;-60
2021/01/14 07:29:18;;;;;;;4.35;0.40;;;3.40;99.90;;;;;;5055323;28;20405;-62
2021/01/14 07:31:53;;;;;;;4.75;0.65;;;3.40;99.90;;;;;;5059858;28;20031;-60
2021/01/14 07:34:35;;;;;;;6.10;0.70;;;3.30;99.90;;;;;;5067710;28;20102;-62
2021/01/14 07:37:02;;;;;;;3.90;0.70;;;3.30;99.90;;;;;;5066174;28;20075;-60
2021/01/14 07:39:50;;;;;;;2.33;0.60;;;3.30;99.90;;;;;;5066993;28;20052;-60
2021/01/14 07:42:22;;;;;;;6.32;0.52;;;3.30;99.90;;;;;;5065211;28;20075;-61
2021/01/14 07:44:52;;;;;;;12.55;1.40;;;3.30;99.90;;;;;;5055136;28;20486;-59
2021/01/14 07:47:31;;;;;;;6.15;0.40;;;3.30;99.90;;;;;;5062882;28;20036;-60
2021/01/14 07:49:58;;;;;;;10.65;0.95;;;3.30;99.90;;;;;;5060368;28;20414;-62
2021/01/14 07:52:31;;;;;;;6.28;0.68;;;3.30;99.90;;;;;;5058416;28;20036;-60
2021/01/14 07:55:03;;;;;;;8.77;0.63;;;3.30;99.90;;;;;;5062808;28;20037;-60
2021/01/14 07:57:30;;;;;;;0.52;0.20;;;3.40;99.90;;;;;;5062691;28;20107;-61
2021/01/14 08:00:08;;;;;;;20.17;1.65;;;3.30;99.90;;;;;;5064867;28;20116;-62
2021/01/14 08:03:05;;;;;;;6.22;1.20;;;3.40;99.90;;;;;;5061091;28;20067;-59
2021/01/14 08:05:56;;;;;;;11.65;1.40;;;3.40;99.90;;;;;;5059745;28;20029;-60
2021/01/14 08:08:38;;;;;;;3.58;0.47;;;3.40;99.90;;;;;;5064339;28;20452;-60
2021/01/14 08:11:19;;;;;;;5.90;0.82;;;3.40;99.90;;;;;;5069234;28;20035;-61
2021/01/14 08:14:03;;;;;;;1.75;0.52;;;3.40;99.90;;;;;;5062436;28;20051;-61
2021/01/14 08:16:32;;;;;;;3.08;0.85;;;3.50;99.90;;;;;;5061919;28;20044;-60
2021/01/14 08:19:14;;;;;;;1.48;0.35;;;3.50;99.90;;;;;;5062831;28;20035;-60
2021/01/14 08:21:39;;;;;;;2.72;0.55;;;3.50;99.90;;;;;;5065467;28;20408;-59
2021/01/14 08:24:05;;;;;;;3.85;0.55;;;3.50;99.90;;;;;;5063396;28;20040;-62
2021/01/14 08:26:49;;;;;;;3.90;0.70;;;3.50;99.90;;;;;;5063101;28;20040;-60
2021/01/14 08:29:30;;;;;;;3.13;0.82;;;3.50;99.90;;;;;;5058003;28;20060;-62
2021/01/14 08:31:56;;;;;;;11.07;1.05;;;3.50;99.90;;;;;;5063778;28;20086;-61
2021/01/14 08:34:24;;;;;;;4.20;0.57;;;3.50;99.90;;;;;;5063839;28;20020;-60
2021/01/14 08:36:53;;;;;;;9.88;0.98;;;3.50;99.90;;;;;;5062316;28;20079;-60
2021/01/14 08:39:22;;;;;;;4.03;0.80;;;3.50;99.90;;;;;;5065436;28;20446;-60
2021/01/14 08:41:49;;;;;;;12.68;2.05;;;3.50;99.90;;;;;;5064153;28;20512;-60
2021/01/14 08:44:17;;;;;;;5.68;0.65;;;3.50;99.90;;;;;;5063808;28;20036;-61
2021/01/14 08:46:47;;;;;;;8.52;1.05;;;3.50;99.90;;;;;;5061122;28;20659;-60
2021/01/14 08:49:14;;;;;;;7.70;1.20;;;3.50;99.90;;;;;;5057688;28;20044;-60
2021/01/14 08:51:42;;;;;;;2.25;0.52;;;3.50;99.90;;;;;;5060757;28;20043;-60
2021/01/14 08:54:08;;;;;;;4.10;0.45;;;3.50;99.90;;;;;;5062400;28;20029;-60
2021/01/14 08:56:34;;;;;;;3.85;1.05;;;3.50;99.90;;;;;;5061764;28;20087;-60
2021/01/14 08:59:13;;;;;;;2.90;0.70;;;3.60;99.90;;;;;;5063072;28;20481;-60
2021/01/14 09:01:39;;;;;;;7.30;0.82;;;3.50;99.90;;;;;;5059475;28;20025;-61
2021/01/14 09:04:06;;;;;;;2.15;0.52;;;3.50;99.90;;;;;;5062022;28;20036;-59
2021/01/14 09:06:39;;;;;;;2.33;0.45;;;3.60;99.90;;;;;;5069329;28;20366;-60
2021/01/14 09:09:05;;;;;;;2.63;0.68;;;3.60;99.90;;;;;;5059928;28;20110;-61
2021/01/14 09:11:32;;;;;;;5.43;0.60;;;3.60;99.90;;;;;;5063553;28;20056;-61
2021/01/14 09:14:04;;;;;;;3.40;0.50;;;3.60;99.90;;;;;;5062289;28;20504;-60
2021/01/14 09:16:30;;;;;;;4.35;0.57;;;3.60;99.90;;;;;;5058495;28;20048;-60
2021/01/14 09:18:56;;;;;;;1.95;0.30;;;3.60;99.90;;;;;;5059738;28;20044;-60
2021/01/14 09:21:21;;;;;;;3.30;0.60;;;3.60;99.90;;;;;;5070003;28;20488;-60
2021/01/14 09:23:47;;;;;;;5.43;0.70;;;3.60;99.90;;;;;;5067256;28;20063;-60
2021/01/14 09:26:18;;;;;;;3.17;0.70;;;3.60;99.90;;;;;;5067865;28;20036;-61
2021/01/14 09:28:48;;;;;;;1.58;0.30;;;3.60;99.90;;;;;;5066143;28;20044;-60
2021/01/14 09:31:15;;;;;;;2.38;0.52;;;3.60;99.90;;;;;;5060411;28;20043;-60
2021/01/14 09:33:42;;;;;;;5.72;0.95;;;3.70;99.90;;;;;;5062792;28;20033;-60
2021/01/14 09:36:14;;;;;;;4.82;0.50;;;3.60;99.90;;;;;;5061322;28;20035;-60
2021/01/14 09:38:51;;;;;;;3.70;0.60;;;3.60;99.90;;;;;;5057263;28;20045;-60
2021/01/14 09:41:23;;;;;;;5.13;1.20;;;3.60;99.90;;;;;;5078387;28;20396;-60
2021/01/14 09:43:54;;;;;;;13.55;2.13;;;3.60;99.90;;;;;;5066523;28;20117;-60
2021/01/14 09:46:21;;;;;;;2.65;0.88;;;3.60;99.90;;;;;;5066885;28;20058;-60
2021/01/14 09:48:49;;;;;;;19.02;2.35;;;3.60;99.90;;;;;;5067171;28;20040;-60
2021/01/14 09:51:14;;;;;;;8.60;0.80;;;3.60;99.90;;;;;;5067719;28;20036;-60
2021/01/14 09:53:45;;;;;;;5.47;0.95;;;3.60;99.90;;;;;;5069968;28;20085;-60
2021/01/14 09:56:34;;;;;;;10.38;0.70;;;3.70;99.90;;;;;;5067842;28;20036;-65
2021/01/14 09:59:08;;;;;;;4.25;0.50;;;3.70;99.90;;;;;;5063499;28;20056;-60
2021/01/14 10:01:37;;;;;;;3.38;0.65;;;3.70;99.90;;;;;;5061955;28;20515;-59
2021/01/14 10:04:08;;;;;;;2.63;0.60;;;3.70;99.90;;;;;;5059051;28;20090;-60
2021/01/14 10:06:39;;;;;;;5.10;0.80;;;3.60;99.90;;;;;;5062896;28;20024;-59
2021/01/14 10:09:05;;;;;;;3.47;0.57;;;3.70;99.90;;;;;;5052634;28;20290;-59
2021/01/14 10:11:32;;;;;;;4.50;0.82;;;3.70;99.90;;;;;;5061619;28;20041;-59
2021/01/14 10:13:58;;;;;;;4.85;0.82;;;3.60;99.90;;;;;;5060884;28;20029;-59
2021/01/14 10:16:23;;;;;;;2.00;0.70;;;3.70;99.90;;;;;;5063882;28;20025;-59
2021/01/14 10:18:49;;;;;;;8.57;1.00;;;3.60;99.90;;;;;;5062658;28;20032;-59
2021/01/14 10:21:23;;;;;;;4.68;0.60;;;3.60;99.90;;;;;;5059637;28;20029;-62
2021/01/14 10:23:48;;;;;;;5.47;0.88;;;3.60;99.90;;;;;;5061378;28;20079;-59
2021/01/14 10:26:27;;;;;;;3.53;0.63;;;3.60;99.90;;;;;;5059863;28;20029;-59
2021/01/14 10:28:53;;;;;;;5.03;0.82;;;3.60;99.90;;;;;;5058927;28;20025;-59
2021/01/14 10:31:38;;;;;;;1.33;0.65;;;3.50;99.90;;;;;;5060160;28;20051;-60
2021/01/14 10:34:07;;;;;;;7.63;1.02;;;3.60;99.90;;;;;;5056135;28;20044;-64
2021/01/14 10:36:47;;;;;;;3.30;0.68;;;3.60;99.90;;;;;;5060290;28;20029;-60
2021/01/14 10:39:13;;;;;;;6.47;1.58;;;3.60;99.90;;;;;;5058677;28;20539;-60
2021/01/14 10:41:40;;;;;;;3.25;1.42;;;3.60;99.90;;;;;;5061896;28;20290;-60
2021/01/14 10:44:06;;;;;;;2.50;0.70;;;3.60;99.90;;;;;;5058298;28;20035;-62
2021/01/14 10:46:32;;;;;;;4.20;1.60;;;3.60;99.90;;;;;;5057185;28;20039;-60
2021/01/14 10:49:07;;;;;;;1.90;1.00;;;3.70;99.90;;;;;;5059753;28;20024;-59
2021/01/14 10:51:33;;;;;;;2.25;1.05;;;3.70;99.90;;;;;;5057291;28;20043;-60
2021/01/14 10:53:59;;;;;;;6.40;1.23;;;3.70;99.90;;;;;;5060829;28;20017;-59
2021/01/14 10:56:24;;;;;;;7.53;1.75;;;3.80;99.90;;;;;;5054668;28;20115;-59
2021/01/14 10:58:58;;;;;;;8.52;2.03;;;3.80;99.90;;;;;;5063758;28;20031;-59
2021/01/14 11:01:24;;;;;;;5.05;0.90;;;3.70;99.90;;;;;;5062099;28;20485;-60
2021/01/14 11:03:52;;;;;;;6.03;1.40;;;3.80;99.90;;;;;;5060971;28;20107;-60
2021/01/14 11:06:28;;;;;;;3.88;1.10;;;3.70;99.90;;;;;;5060282;28;20482;-60
2021/01/14 11:09:03;;;;;;;7.90;1.85;;;3.70;99.90;;;;;;5054880;28;20539;-60
2021/01/14 11:11:29;;;;;;;6.43;1.10;;;3.60;99.90;;;;;;5062562;28;20429;-60
2021/01/14 11:13:54;;;;;;;8.32;1.40;;;3.60;99.90;;;;;;5060913;28;20463;-60
2021/01/14 11:16:26;;;;;;;8.73;1.27;;;3.50;99.90;;;;;;5059502;28;20033;-60
2021/01/14 11:18:53;;;;;;;4.65;2.05;;;3.60;99.90;;;;;;5056742;28;20033;-60
2021/01/14 11:21:30;;;;;;;5.43;1.30;;;3.50;99.90;;;;;;5060816;28;20048;-60
2021/01/14 11:23:56;;;;;;;4.10;0.98;;;3.40;99.90;;;;;;5056286;28;20045;-60
2021/01/14 11:26:22;;;;;;;2.42;0.80;;;3.50;99.90;;;;;;5058306;28;20539;-60
2021/01/14 11:28:49;;;;;;;3.13;1.05;;;3.50;99.90;;;;;;5060829;28;20072;-61
2021/01/14 11:31:17;;;;;;;7.28;1.25;;;3.50;99.90;;;;;;5065274;28;20043;-59
2021/01/14 11:33:43;;;;;;;2.17;0.88;;;3.50;99.90;;;;;;5063707;28;20063;-59
2021/01/14 11:36:09;;;;;;;8.95;1.58;;;3.40;99.90;;;;;;5063863;28;20033;-59
2021/01/14 11:38:34;;;;;;;6.95;1.50;;;3.40;99.90;;;;;;5061913;28;20119;-60
2021/01/14 11:41:00;;;;;;;2.25;1.20;;;3.50;99.90;;;;;;5061268;28;20132;-64
2021/01/14 11:43:26;;;;;;;8.38;1.02;;;3.50;99.90;;;;;;5067723;28;20044;-58
2021/01/14 11:45:52;;;;;;;4.28;1.30;;;3.60;99.90;;;;;;5062100;28;20029;-60
2021/01/14 11:48:18;;;;;;;5.45;1.10;;;3.60;99.90;;;;;;5061479;28;20036;-59
2021/01/14 11:50:44;;;;;;;7.03;1.35;;;3.60;99.90;;;;;;5065467;28;20040;-60
2021/01/14 11:53:09;;;;;;;2.55;0.90;;;3.60;99.90;;;;;;5065740;28;20135;-60
2021/01/14 11:55:35;;;;;;;4.88;1.35;;;3.50;99.90;;;;;;5065306;28;20085;-60
2021/01/14 11:58:01;;;;;;;8.13;1.35;;;3.50;99.90;;;;;;5063263;28;20059;-60
2021/01/14 12:00:27;;;;;;;8.50;1.63;;;3.40;99.90;;;;;;5059374;28;20044;-60
2021/01/14 12:02:53;;;;;;;6.28;1.77;;;3.40;99.90;;;;;;5063320;28;20397;-59
2021/01/14 12:05:18;;;;;;;5.25;1.20;;;3.40;99.90;;;;;;5066910;28;20040;-59
2021/01/14 12:07:44;;;;;;;6.00;1.33;;;3.40;99.90;;;;;;5069492;28;20032;-59
2021/01/14 12:10:10;;;;;;;7.00;1.17;;;3.40;99.90;;;;;;5070847;28;20036;-59
2021/01/14 12:12:35;;;;;;;8.20;1.95;;;3.50;99.90;;;;;;5088402;22;20080;-66
2021/01/14 12:15:02;;;;;;;3.72;1.00;;;3.50;99.90;;;;;;5060085;28;20052;-66
2021/01/14 12:17:28;;;;;;;7.50;1.30;;;3.50;99.90;;;;;;5063953;28;20064;-67
2021/01/14 12:19:54;;;;;;;4.65;1.63;;;3.50;99.90;;;;;;5061805;28;20400;-66
2021/01/14 12:22:19;;;;;;;6.57;1.77;;;3.60;99.90;;;;;;5060753;28;20056;-65
2021/01/14 12:24:45;;;;;;;5.03;1.52;;;3.60;99.90;;;;;;5061722;28;20039;-68
2021/01/14 12:27:10;;;;;;;1.63;0.65;;;3.60;99.90;;;;;;5064526;28;20040;-66
2021/01/14 12:29:36;;;;;;;10.75;2.35;;;3.50;99.90;;;;;;5063171;28;20067;-65
2021/01/14 12:32:05;;;;;;;5.20;1.52;;;3.60;99.90;;;;;;5059813;28;20539;-66
2021/01/14 12:34:32;;;;;;;3.58;1.30;;;3.60;99.90;;;;;;5058946;28;20120;-66
2021/01/14 12:36:57;;;;;;;3.58;0.88;;;3.60;99.90;;;;;;5063841;28;20488;-67
2021/01/14 12:39:24;;;;;;;3.40;1.35;;;3.70;99.90;;;;;;5062345;28;20064;-67
2021/01/14 12:41:50;;;;;;;4.38;1.23;;;3.70;99.90;;;;;;5059744;28;20033;-65
2021/01/14 12:44:16;;;;;;;6.75;2.30;;;3.70;99.90;;;;;;5060329;28;20033;-66
2021/01/14 12:46:45;;;;;;;6.28;1.45;;;3.70;99.90;;;;;;5061436;28;20025;-65
2021/01/14 12:49:12;;;;;;;3.00;1.33;;;3.60;99.90;;;;;;5063116;28;20108;-66
2021/01/14 12:51:39;;;;;;;2.60;1.13;;;3.60;99.90;;;;;;5057845;28;20115;-66
2021/01/14 12:54:06;;;;;;;2.13;1.35;;;3.70;99.90;;;;;;5064923;28;20056;-68
2021/01/14 12:56:31;;;;;;;6.85;1.33;;;3.70;99.90;;;;;;5064042;28;20392;-65
2021/01/14 12:58:57;;;;;;;3.78;1.20;;;3.70;99.90;;;;;;5062165;28;20025;-65
2021/01/14 13:01:39;;;;;;;4.93;1.58;;;3.70;99.90;;;;;;5067236;28;20090;-66
2021/01/14 13:04:07;;;;;;;4.28;1.20;;;3.70;99.90;;;;;;5063661;28;20025;-66
2021/01/14 13:06:35;;;;;;;6.90;1.55;;;3.70;99.90;;;;;;5066246;28;20028;-66